Time;durP1;ratioP1;P1;durP2;ratioP2;P2;SDS_P1;SDS_P2;PMS_P1;PMS_P2;Temp;Humidity;BMP_temperature;BMP_pressure;BME280_temperature;BME280_humidity;BME280_pressure;Samples;Min_cycle;Max_cycle;Signal;HPM_P1;HPM_P2
2022/05/14 00:00:53;;;;;;;34.63;10.27;;;13.40;99.90;;;;;;5068787;28;20201;-82
2022/05/14 00:03:21;;;;;;;30.20;9.70;;;13.40;99.90;;;;;;5067135;28;20282;-82
2022/05/14 00:05:48;;;;;;;37.20;11.73;;;13.40;99.90;;;;;;5065674;28;20197;-82
2022/05/14 00:08:16;;;;;;;34.43;10.00;;;13.50;99.90;;;;;;5055507;28;20218;-81
2022/05/14 00:13:26;;;;;;;35.60;10.80;;;13.50;99.90;;;;;;5044453;28;20186;-81
2022/05/14 00:15:53;;;;;;;34.53;11.33;;;13.50;99.90;;;;;;5045529;28;20194;-82
2022/05/14 00:18:21;;;;;;;34.00;11.37;;;13.50;99.90;;;;;;5045500;28;20244;-81
2022/05/14 00:20:48;;;;;;;36.50;12.07;;;13.50;99.90;;;;;;5045603;28;20213;-83
2022/05/14 00:23:15;;;;;;;37.10;12.80;;;13.50;99.90;;;;;;5045686;28;20578;-83
2022/05/14 00:25:42;;;;;;;27.80;10.83;;;13.60;99.90;;;;;;5046671;28;20248;-83
2022/05/14 00:28:09;;;;;;;33.33;9.23;;;13.60;99.90;;;;;;5046295;28;20263;-81
2022/05/14 00:30:37;;;;;;;36.33;9.27;;;13.60;99.90;;;;;;5046439;28;20206;-81
2022/05/14 00:33:05;;;;;;;31.53;8.17;;;13.60;99.90;;;;;;5046607;28;20579;-82
2022/05/14 00:35:32;;;;;;;30.53;7.57;;;13.70;99.90;;;;;;5048724;28;20705;-81
2022/05/14 00:38:00;;;;;;;25.60;6.37;;;13.70;99.90;;;;;;5048247;28;20194;-83
2022/05/14 00:40:28;;;;;;;24.40;6.97;;;13.70;99.90;;;;;;5046888;28;20216;-82
2022/05/14 00:42:55;;;;;;;25.73;6.70;;;13.70;99.90;;;;;;5049246;28;20198;-83
2022/05/14 00:45:23;;;;;;;25.60;7.03;;;13.70;99.90;;;;;;5049408;28;20300;-83
2022/05/14 00:47:54;;;;;;;25.37;7.00;;;13.70;99.90;;;;;;5049537;28;20210;-82
2022/05/14 00:50:25;;;;;;;28.13;7.57;;;13.70;99.90;;;;;;5049601;28;20214;-81
2022/05/14 00:52:59;;;;;;;26.87;6.87;;;13.70;99.90;;;;;;5049013;28;20335;-81
2022/05/14 00:55:27;;;;;;;25.43;6.83;;;13.70;99.90;;;;;;5049005;28;20335;-83
2022/05/14 00:57:55;;;;;;;25.30;7.30;;;13.70;99.90;;;;;;5049023;28;20653;-82
2022/05/14 01:00:24;;;;;;;31.47;7.80;;;13.70;99.90;;;;;;5048375;28;20221;-82
2022/05/14 01:02:53;;;;;;;29.57;7.07;;;13.60;99.90;;;;;;5048882;28;20321;-81
2022/05/14 01:05:23;;;;;;;28.33;6.63;;;13.60;99.90;;;;;;5048478;28;20210;-82
2022/05/14 01:07:52;;;;;;;29.37;7.23;;;13.60;99.90;;;;;;5048038;28;20883;-82
2022/05/14 01:10:21;;;;;;;27.80;6.53;;;13.60;99.90;;;;;;5049120;28;20206;-81
2022/05/14 01:12:53;;;;;;;22.07;6.90;;;13.60;99.90;;;;;;5062969;28;20209;-82
2022/05/14 01:15:24;;;;;;;28.70;7.97;;;13.50;99.90;;;;;;5070019;28;20189;-81
2022/05/14 01:17:52;;;;;;;21.70;7.40;;;13.50;99.90;;;;;;5070671;28;20201;-82
2022/05/14 01:20:19;;;;;;;35.63;7.57;;;13.40;99.90;;;;;;5070002;28;20232;-82
2022/05/14 01:23:00;;;;;;;30.03;7.50;;;13.50;99.90;;;;;;5069369;28;20284;-82
2022/05/14 01:28:20;;;;;;;32.50;6.73;;;13.50;99.90;;;;;;5050332;28;20273;-82
2022/05/14 01:30:52;;;;;;;26.60;8.27;;;13.50;99.90;;;;;;5050796;28;20213;-82
2022/05/14 01:33:19;;;;;;;22.13;6.70;;;13.40;99.90;;;;;;5050146;28;20198;-83
2022/05/14 01:35:46;;;;;;;22.47;7.07;;;13.40;99.90;;;;;;5050792;28;20476;-81
2022/05/14 01:38:13;;;;;;;26.13;6.43;;;13.40;99.90;;;;;;5049888;28;20198;-83
2022/05/14 01:40:40;;;;;;;27.87;6.27;;;13.40;99.90;;;;;;5050095;28;20197;-82
2022/05/14 01:43:07;;;;;;;26.23;6.77;;;13.50;99.90;;;;;;5049597;28;20204;-82
2022/05/14 01:45:35;;;;;;;29.17;7.17;;;13.50;99.90;;;;;;5049798;28;20230;-82
2022/05/14 01:48:03;;;;;;;32.40;7.97;;;13.50;99.90;;;;;;5059686;28;20240;-82
2022/05/14 01:50:30;;;;;;;23.73;7.20;;;13.50;99.90;;;;;;5068694;28;20208;-79
2022/05/14 01:52:57;;;;;;;24.77;6.77;;;13.50;99.90;;;;;;5069711;28;20597;-81
2022/05/14 01:55:24;;;;;;;27.20;7.53;;;13.50;99.90;;;;;;5065833;28;20209;-82
2022/05/14 01:57:51;;;;;;;26.53;7.27;;;13.50;99.90;;;;;;5048402;28;20213;-83
2022/05/14 02:00:21;;;;;;;25.03;6.93;;;13.50;99.90;;;;;;5048157;28;20226;-82
2022/05/14 02:02:49;;;;;;;25.20;6.57;;;13.40;99.90;;;;;;5048902;28;20198;-80
2022/05/14 02:05:17;;;;;;;22.90;7.47;;;13.50;99.90;;;;;;5067456;28;20239;-81
2022/05/14 02:07:44;;;;;;;26.27;7.33;;;13.50;99.90;;;;;;5068937;28;20213;-82
2022/05/14 02:10:11;;;;;;;26.23;7.10;;;13.50;99.90;;;;;;5060121;28;20208;-83
2022/05/14 02:12:40;;;;;;;23.30;6.43;;;13.40;99.90;;;;;;5046751;28;20198;-82
2022/05/14 02:15:08;;;;;;;26.47;6.77;;;13.40;99.90;;;;;;5050225;28;20194;-82
2022/05/14 02:17:34;;;;;;;29.13;7.20;;;13.40;99.90;;;;;;5069232;28;20648;-81
2022/05/14 02:20:04;;;;;;;22.37;6.33;;;13.40;99.90;;;;;;5068906;28;20247;-81
2022/05/14 02:22:30;;;;;;;15.57;5.50;;;13.30;99.90;;;;;;5068519;28;20205;-82
2022/05/14 02:24:57;;;;;;;20.27;5.97;;;13.30;99.90;;;;;;5060792;28;20472;-81
2022/05/14 02:27:24;;;;;;;25.60;7.07;;;13.30;99.90;;;;;;5049532;28;20194;-82
2022/05/14 02:29:54;;;;;;;22.63;6.57;;;13.30;99.90;;;;;;5049761;28;20198;-82
2022/05/14 02:32:23;;;;;;;23.13;6.73;;;13.20;99.90;;;;;;5048830;28;20252;-82
2022/05/14 02:34:51;;;;;;;21.17;6.47;;;13.20;99.90;;;;;;5049538;28;20601;-83
2022/05/14 02:37:23;;;;;;;19.50;5.90;;;13.10;99.90;;;;;;5049120;28;20586;-82
2022/05/14 02:39:50;;;;;;;20.60;5.60;;;13.10;99.90;;;;;;5048429;28;20226;-81
2022/05/14 02:42:18;;;;;;;22.73;6.13;;;13.00;99.90;;;;;;5060988;28;20229;-81
2022/05/14 02:44:44;;;;;;;20.83;5.77;;;13.00;99.90;;;;;;5068695;28;20216;-82
2022/05/14 02:47:11;;;;;;;21.57;5.73;;;12.90;99.90;;;;;;5067883;28;20545;-83
2022/05/14 02:49:39;;;;;;;21.97;6.07;;;12.90;99.90;;;;;;5061490;28;20198;-80
2022/05/14 02:52:06;;;;;;;19.80;6.53;;;12.90;99.90;;;;;;5048274;28;20618;-81
2022/05/14 02:54:35;;;;;;;22.47;5.33;;;12.80;99.90;;;;;;5047020;28;20210;-81
2022/05/14 02:57:02;;;;;;;14.93;5.57;;;12.80;99.90;;;;;;5048624;28;20210;-82
2022/05/14 02:59:29;;;;;;;11.23;4.60;;;12.70;99.90;;;;;;5048207;28;20238;-82
2022/05/14 03:01:56;;;;;;;13.70;4.63;;;12.70;99.90;;;;;;5047665;28;20201;-82
2022/05/14 03:04:25;;;;;;;8.30;3.57;;;12.60;99.90;;;;;;5047607;28;20205;-82
2022/05/14 03:06:52;;;;;;;9.70;3.23;;;12.50;99.90;;;;;;5047870;28;20229;-82
2022/05/14 03:09:19;;;;;;;15.63;4.57;;;12.50;99.90;;;;;;5047299;28;20205;-82
2022/05/14 03:11:47;;;;;;;9.80;4.30;;;12.40;99.90;;;;;;5066856;28;20235;-81
2022/05/14 03:14:15;;;;;;;10.60;4.13;;;12.40;99.90;;;;;;5067495;28;20204;-81
2022/05/14 03:16:43;;;;;;;12.17;4.50;;;12.30;99.90;;;;;;5067295;28;20201;-82
2022/05/14 03:19:11;;;;;;;10.70;4.60;;;12.30;99.90;;;;;;5066731;28;20225;-82
2022/05/14 03:21:39;;;;;;;8.83;4.27;;;12.20;99.90;;;;;;5067442;28;20197;-81
2022/05/14 03:24:06;;;;;;;9.93;3.70;;;12.20;99.90;;;;;;5067186;28;20200;-82
2022/05/14 03:26:33;;;;;;;10.63;3.80;;;12.10;99.90;;;;;;5046156;28;20213;-81
2022/05/14 03:29:01;;;;;;;12.23;4.30;;;12.10;99.90;;;;;;5045401;28;20209;-81
2022/05/14 03:31:28;;;;;;;8.03;3.40;;;12.00;99.90;;;;;;5046175;28;20190;-81
2022/05/14 03:33:55;;;;;;;13.97;4.23;;;12.00;99.90;;;;;;5045807;28;20238;-82
2022/05/14 03:36:22;;;;;;;11.23;4.70;;;12.00;99.90;;;;;;5048371;28;20204;-83
2022/05/14 03:38:48;;;;;;;12.27;4.40;;;11.90;99.90;;;;;;5048214;28;20211;-81
2022/05/14 03:41:16;;;;;;;7.93;3.97;;;11.90;99.90;;;;;;5048688;28;20233;-83
2022/05/14 03:43:43;;;;;;;11.20;4.20;;;11.80;99.90;;;;;;5046381;28;20214;-83
2022/05/14 03:46:12;;;;;;;13.73;4.57;;;11.80;99.90;;;;;;5046054;28;20221;-83
2022/05/14 03:48:38;;;;;;;13.47;5.40;;;11.70;99.90;;;;;;5047312;28;20201;-82
2022/05/14 03:51:06;;;;;;;12.40;5.40;;;11.70;99.90;;;;;;5048030;28;20206;-82
2022/05/14 03:53:33;;;;;;;12.33;4.97;;;11.60;99.90;;;;;;5048203;28;20206;-82
2022/05/14 03:55:59;;;;;;;12.83;5.00;;;11.60;99.90;;;;;;5047178;28;20220;-82
2022/05/14 03:58:27;;;;;;;11.43;4.63;;;11.60;99.90;;;;;;5047740;28;20204;-83
2022/05/14 04:00:53;;;;;;;11.83;4.37;;;11.60;99.90;;;;;;5047575;28;20260;-82
2022/05/14 04:03:21;;;;;;;13.37;5.07;;;11.50;99.90;;;;;;5063542;28;20308;-82
2022/05/14 04:05:48;;;;;;;13.63;5.23;;;11.50;99.90;;;;;;5067701;28;20545;-82
2022/05/14 04:08:17;;;;;;;14.13;5.77;;;11.50;99.90;;;;;;5067374;28;20229;-83
2022/05/14 04:10:44;;;;;;;14.33;5.10;;;11.50;99.90;;;;;;5066894;28;20224;-81
2022/05/14 04:13:11;;;;;;;13.40;5.07;;;11.50;99.90;;;;;;5066948;28;20224;-82
2022/05/14 04:15:39;;;;;;;11.90;4.97;;;11.60;99.90;;;;;;5067533;28;20208;-81
2022/05/14 04:18:06;;;;;;;14.97;5.63;;;11.60;99.90;;;;;;5067327;28;20193;-82
2022/05/14 04:20:35;;;;;;;12.37;5.57;;;11.60;99.90;;;;;;5049981;28;20768;-82
2022/05/14 04:23:02;;;;;;;20.40;7.33;;;11.60;99.90;;;;;;5047671;28;20293;-82
2022/05/14 04:25:29;;;;;;;13.50;6.37;;;11.60;99.90;;;;;;5050354;28;20194;-81
2022/05/14 04:27:56;;;;;;;11.03;5.30;;;11.60;99.90;;;;;;5052013;28;20202;-82
2022/05/14 04:30:23;;;;;;;13.63;5.30;;;11.60;99.90;;;;;;5051748;28;20244;-81
2022/05/14 04:32:50;;;;;;;18.40;6.60;;;11.60;99.90;;;;;;5051493;28;20204;-82
2022/05/14 04:35:17;;;;;;;17.67;5.70;;;11.60;99.90;;;;;;5051387;28;20278;-81
2022/05/14 04:37:46;;;;;;;15.50;6.17;;;11.70;99.90;;;;;;5051144;28;20214;-82
2022/05/14 04:40:13;;;;;;;14.03;5.40;;;11.70;99.90;;;;;;5051149;28;20309;-82
2022/05/14 04:42:40;;;;;;;15.77;5.73;;;11.70;99.90;;;;;;5051982;28;20221;-81
2022/05/14 04:45:10;;;;;;;19.43;6.53;;;11.80;99.90;;;;;;5051783;28;20205;-82
2022/05/14 04:47:37;;;;;;;12.53;5.50;;;11.80;99.90;;;;;;5050962;28;20742;-82
2022/05/14 04:50:06;;;;;;;12.77;5.63;;;11.90;99.90;;;;;;5051694;28;20212;-81
2022/05/14 04:52:33;;;;;;;12.03;6.17;;;11.90;99.90;;;;;;5051506;28;20202;-82
2022/05/14 04:55:01;;;;;;;18.77;6.27;;;11.90;99.90;;;;;;5051077;28;20198;-81
2022/05/14 04:57:28;;;;;;;19.50;5.97;;;12.00;99.90;;;;;;5051160;28;20202;-81
2022/05/14 04:59:55;;;;;;;15.07;5.90;;;12.00;99.90;;;;;;5051847;28;20641;-81
2022/05/14 05:05:07;;;;;;;19.27;7.17;;;12.10;99.90;;;;;;5051224;28;20589;-82
2022/05/14 05:07:34;;;;;;;16.40;6.80;;;12.20;99.90;;;;;;5051628;28;20224;-81
2022/05/14 05:10:02;;;;;;;17.10;5.87;;;12.30;99.90;;;;;;5052107;28;20206;-82
2022/05/14 05:12:29;;;;;;;15.13;5.43;;;12.30;99.90;;;;;;5052822;28;20205;-81
2022/05/14 05:14:56;;;;;;;12.90;5.33;;;12.40;99.90;;;;;;5052403;28;20190;-82
2022/05/14 05:17:23;;;;;;;17.23;6.27;;;12.50;99.90;;;;;;5053400;28;20303;-81
2022/05/14 05:19:50;;;;;;;17.37;7.57;;;12.50;99.90;;;;;;5055760;28;20332;-82
2022/05/14 05:22:17;;;;;;;15.87;6.20;;;12.60;99.90;;;;;;5056560;28;20237;-81
2022/05/14 05:24:44;;;;;;;21.07;6.73;;;12.70;99.90;;;;;;5052582;28;20202;-81
2022/05/14 05:27:12;;;;;;;21.13;7.50;;;12.80;99.90;;;;;;5053045;28;20344;-82
2022/05/14 05:29:39;;;;;;;18.07;6.40;;;12.90;99.90;;;;;;5059547;28;20604;-83
2022/05/14 05:32:06;;;;;;;18.43;6.50;;;13.00;99.90;;;;;;5063550;28;20214;-82
2022/05/14 05:34:33;;;;;;;22.60;8.00;;;13.10;99.90;;;;;;5069182;28;20238;-83
2022/05/14 05:37:00;;;;;;;26.83;8.53;;;13.20;99.90;;;;;;5072928;28;20197;-83
2022/05/14 05:39:27;;;;;;;23.57;9.27;;;13.40;99.90;;;;;;5071831;28;20212;-83
2022/05/14 05:41:54;;;;;;;32.77;11.83;;;13.60;99.90;;;;;;5067640;28;20228;-83
2022/05/14 05:44:22;;;;;;;26.43;9.77;;;13.80;99.90;;;;;;5066806;28;20206;-83
2022/05/14 05:46:49;;;;;;;26.97;9.57;;;14.00;99.90;;;;;;5051653;28;20202;-83
2022/05/14 05:49:16;;;;;;;25.60;9.80;;;14.30;99.90;;;;;;5049240;28;20237;-84
2022/05/14 05:51:43;;;;;;;25.00;9.93;;;14.70;99.90;;;;;;5065390;28;20216;-83
2022/05/14 05:56:57;;;;;;;27.23;9.80;;;15.50;99.90;;;;;;5069521;28;20198;-84
2022/05/14 05:59:28;;;;;;;21.73;9.40;;;15.90;99.90;;;;;;5062447;28;20736;-83
2022/05/14 06:01:55;;;;;;;22.77;8.80;;;16.30;99.90;;;;;;5050071;28;20210;-82
2022/05/14 06:04:23;;;;;;;20.98;9.50;;;16.80;99.90;;;;;;5049235;28;20821;-83
2022/05/14 06:06:50;;;;;;;19.55;8.23;;;17.10;99.90;;;;;;5052721;28;20315;-82
2022/05/14 06:09:18;;;;;;;26.17;9.48;;;17.60;99.90;;;;;;5069973;28;20358;-81
2022/05/14 06:11:45;;;;;;;23.90;10.10;;;17.90;99.90;;;;;;5066315;28;20209;-82
2022/05/14 06:14:13;;;;;;;19.33;9.57;;;18.30;99.90;;;;;;5049338;28;20236;-83
2022/05/14 06:16:42;;;;;;;25.92;9.77;;;18.50;99.90;;;;;;5049667;28;20210;-82
2022/05/14 06:19:10;;;;;;;21.27;8.23;;;18.80;99.90;;;;;;5050296;28;20202;-84
2022/05/14 06:21:38;;;;;;;27.33;9.55;;;19.20;99.90;;;;;;5049639;28;20626;-84
2022/05/14 06:24:07;;;;;;;21.17;8.23;;;19.50;99.90;;;;;;5048891;28;20202;-84
2022/05/14 06:26:34;;;;;;;24.10;8.73;;;19.70;99.90;;;;;;5055568;28;20220;-83
2022/05/14 06:29:01;;;;;;;19.88;7.55;;;20.00;99.90;;;;;;5069218;28;20206;-82
2022/05/14 06:31:28;;;;;;;22.50;7.85;;;20.30;99.90;;;;;;5069659;28;20193;-82
2022/05/14 06:33:57;;;;;;;20.08;8.38;;;20.60;99.90;;;;;;5068917;28;20236;-83
2022/05/14 06:36:23;;;;;;;19.70;7.30;;;20.80;99.90;;;;;;5069506;28;20185;-82
2022/05/14 06:38:51;;;;;;;22.13;9.43;;;21.10;99.90;;;;;;5068064;28;20196;-79
2022/05/14 06:41:17;;;;;;;22.48;9.50;;;21.40;99.90;;;;;;5049388;28;20217;-85
2022/05/14 06:43:44;;;;;;;18.63;8.07;;;21.40;99.90;;;;;;5049956;28;20201;-84
2022/05/14 06:46:11;;;;;;;22.83;9.02;;;21.50;99.90;;;;;;5049215;28;20197;-84
2022/05/14 06:48:38;;;;;;;19.77;8.30;;;21.80;99.90;;;;;;5049418;28;20194;-85
2022/05/14 06:51:10;;;;;;;20.60;7.63;;;21.90;99.90;;;;;;5050682;28;20220;-83
2022/05/14 06:53:40;;;;;;;24.10;8.85;;;22.00;99.90;;;;;;5046869;28;20205;-81
2022/05/14 06:56:08;;;;;;;20.77;7.70;;;22.20;99.90;;;;;;5048769;28;20613;-86
2022/05/14 06:58:40;;;;;;;21.02;7.30;;;22.40;99.90;;;;;;5027701;28;20202;-84
2022/05/14 07:01:08;;;;;;;19.58;7.45;;;22.60;99.90;;;;;;5048537;28;20209;-81
2022/05/14 07:06:38;;;;;;;21.00;7.10;;;22.80;99.90;;;;;;5048611;28;20255;-81
2022/05/14 07:09:07;;;;;;;14.32;5.05;;;23.00;99.90;;;;;;5048402;28;20209;-82
2022/05/14 07:11:35;;;;;;;10.55;4.60;;;23.00;99.90;;;;;;5047463;28;20198;-82
2022/05/14 07:14:02;;;;;;;13.32;4.32;;;22.90;99.90;;;;;;5050523;28;20319;-80
2022/05/14 07:16:29;;;;;;;8.98;3.28;;;22.70;99.90;;;;;;5067461;28;20600;-82
2022/05/14 07:18:56;;;;;;;13.00;3.95;;;22.80;99.90;;;;;;5067485;28;20201;-83
2022/05/14 07:21:24;;;;;;;11.15;4.47;;;23.00;99.90;;;;;;5063923;28;20217;-79
2022/05/14 07:23:51;;;;;;;11.32;4.15;;;23.10;99.90;;;;;;5049453;28;20482;-82
2022/05/14 07:26:18;;;;;;;11.48;4.05;;;23.10;99.90;;;;;;5050112;28;20629;-85
2022/05/14 07:28:45;;;;;;;15.10;4.03;;;23.30;99.90;;;;;;5049811;28;20206;-83
2022/05/14 07:31:12;;;;;;;14.52;3.90;;;23.30;99.90;;;;;;5050717;28;20202;-86
2022/05/14 07:33:38;;;;;;;14.25;3.78;;;23.30;99.90;;;;;;5050331;28;20252;-85
2022/05/14 07:36:11;;;;;;;12.88;4.15;;;23.20;99.90;;;;;;5049765;28;20193;-84
2022/05/14 07:38:40;;;;;;;11.75;3.88;;;23.20;99.90;;;;;;5065753;28;20247;-82
2022/05/14 07:41:08;;;;;;;13.60;3.60;;;23.40;99.90;;;;;;5062200;28;20356;-83
2022/05/14 07:43:38;;;;;;;9.27;4.15;;;23.50;99.90;;;;;;5049902;28;20620;-81
2022/05/14 07:46:09;;;;;;;10.45;3.63;;;23.70;99.90;;;;;;5050909;28;20214;-82
2022/05/14 07:48:39;;;;;;;12.93;3.85;;;23.60;99.90;;;;;;5049403;28;20528;-83
2022/05/14 07:51:08;;;;;;;11.05;3.72;;;23.50;99.90;;;;;;5049818;28;20202;-84
2022/05/14 07:53:35;;;;;;;9.88;3.22;;;23.50;99.90;;;;;;5050201;28;20206;-83
2022/05/14 07:56:05;;;;;;;12.88;3.50;;;23.50;99.90;;;;;;5057817;28;20213;-84
2022/05/14 07:58:33;;;;;;;11.10;3.85;;;23.80;99.90;;;;;;5069277;28;20204;-80
2022/05/14 08:01:00;;;;;;;12.75;3.40;;;24.00;99.90;;;;;;5068112;28;20225;-81
2022/05/14 08:03:27;;;;;;;12.13;3.97;;;24.00;99.90;;;;;;5068055;28;20202;-85
2022/05/14 08:05:54;;;;;;;9.70;3.30;;;24.00;99.90;;;;;;5054740;28;20304;-83
2022/05/14 08:08:22;;;;;;;9.82;3.70;;;24.10;99.90;;;;;;5046396;28;20221;-84
2022/05/14 08:10:49;;;;;;;15.77;4.38;;;24.10;99.90;;;;;;5045874;28;20646;-83
2022/05/14 08:13:19;;;;;;;14.10;3.80;;;24.10;99.90;;;;;;5047363;28;20249;-84
2022/05/14 08:15:49;;;;;;;11.10;3.35;;;24.30;99.90;;;;;;5047786;28;20209;-81
2022/05/14 08:18:16;;;;;;;10.48;3.25;;;24.40;99.90;;;;;;5047196;28;20259;-82
2022/05/14 08:20:44;;;;;;;10.43;3.10;;;24.50;99.90;;;;;;5047445;28;20241;-82
2022/05/14 08:25:59;;;;;;;9.90;3.20;;;24.80;99.90;;;;;;5047130;28;20848;-82
2022/05/14 08:28:28;;;;;;;12.68;4.05;;;25.00;99.90;;;;;;5047955;28;20217;-83
2022/05/14 08:30:55;;;;;;;7.63;3.55;;;25.10;99.90;;;;;;5046202;28;20194;-83
2022/05/14 08:33:22;;;;;;;10.77;3.58;;;25.30;99.90;;;;;;5047501;28;20194;-82
2022/05/14 08:35:49;;;;;;;12.50;3.30;;;25.30;99.90;;;;;;5047787;28;20287;-84
2022/05/14 08:38:17;;;;;;;14.20;3.72;;;25.30;99.90;;;;;;5048121;28;20493;-84
2022/05/14 08:40:51;;;;;;;10.48;3.60;;;25.20;99.90;;;;;;5047140;28;20213;-82
2022/05/14 08:43:22;;;;;;;9.35;3.58;;;25.30;99.90;;;;;;5049341;28;20669;-84
2022/05/14 08:45:50;;;;;;;10.82;3.17;;;25.30;99.90;;;;;;5049553;28;20194;-83
2022/05/14 08:48:22;;;;;;;10.48;3.78;;;25.10;99.90;;;;;;5048842;28;20819;-83
2022/05/14 08:50:55;;;;;;;14.55;4.25;;;25.00;99.90;;;;;;5048357;28;20649;-84
2022/05/14 08:53:25;;;;;;;10.35;3.67;;;25.00;99.90;;;;;;5047775;28;20574;-83
2022/05/14 08:56:03;;;;;;;8.63;3.08;;;25.00;99.90;;;;;;5047011;28;20209;-82
2022/05/14 08:58:38;;;;;;;12.05;3.92;;;24.90;99.90;;;;;;5046503;28;20204;-83
2022/05/14 09:01:07;;;;;;;14.07;4.10;;;24.70;99.90;;;;;;5046576;28;20514;-83
2022/05/14 09:03:34;;;;;;;17.23;4.18;;;24.60;99.90;;;;;;5046223;28;20527;-81
2022/05/14 09:06:02;;;;;;;13.75;3.80;;;24.70;99.90;;;;;;5060470;28;20205;-83
2022/05/14 09:08:28;;;;;;;8.40;3.20;;;24.70;99.90;;;;;;5068058;28;20229;-84
2022/05/14 09:11:00;;;;;;;12.77;4.70;;;24.80;99.90;;;;;;5055032;28;20411;-85
2022/05/14 09:13:28;;;;;;;14.30;3.92;;;24.90;99.90;;;;;;5050406;28;20202;-83
2022/05/14 09:15:57;;;;;;;11.73;3.80;;;25.10;99.90;;;;;;5050873;28;20206;-85
2022/05/14 09:18:28;;;;;;;12.73;3.63;;;25.20;99.90;;;;;;5051519;28;20206;-84
2022/05/14 09:20:59;;;;;;;11.95;3.97;;;25.20;99.90;;;;;;5067877;28;20204;-80
2022/05/14 09:23:29;;;;;;;12.63;3.45;;;25.10;99.90;;;;;;5068231;28;20193;-81
2022/05/14 09:25:56;;;;;;;11.52;3.95;;;24.80;99.90;;;;;;5062397;28;20201;-81
2022/05/14 09:28:32;;;;;;;13.02;3.95;;;24.80;99.90;;;;;;5048125;28;20605;-80
2022/05/14 09:31:00;;;;;;;9.13;3.45;;;25.00;99.90;;;;;;5048904;28;20240;-80
2022/05/14 09:33:35;;;;;;;11.75;3.85;;;25.00;99.90;;;;;;5047949;28;20206;-81
2022/05/14 09:36:04;;;;;;;10.80;3.70;;;25.10;99.90;;;;;;5047954;28;20300;-83
2022/05/14 09:38:31;;;;;;;10.90;3.50;;;25.20;99.90;;;;;;5051918;28;20217;-85
2022/05/14 09:41:11;;;;;;;11.02;3.90;;;25.10;99.90;;;;;;5052767;28;20217;-84
2022/05/14 09:43:39;;;;;;;12.52;3.58;;;24.90;99.90;;;;;;5050881;28;20239;-84
2022/05/14 09:46:10;;;;;;;15.52;4.35;;;24.70;99.90;;;;;;5050191;28;20209;-81
2022/05/14 09:48:47;;;;;;;11.60;3.80;;;24.70;99.90;;;;;;5051228;28;20462;-83
2022/05/14 09:51:26;;;;;;;10.32;3.63;;;24.80;99.90;;;;;;5051220;28;20773;-83
2022/05/14 09:53:54;;;;;;;10.48;4.18;;;25.00;99.90;;;;;;5069280;28;20201;-85
2022/05/14 09:56:48;;;;;;;13.93;4.45;;;25.00;99.90;;;;;;5070678;28;20598;-85
2022/05/14 09:59:45;;;;;;;11.63;3.35;;;24.90;99.90;;;;;;5071358;28;20208;-85
2022/05/14 10:02:18;;;;;;;12.45;3.83;;;25.00;99.90;;;;;;5071564;28;20276;-84
2022/05/14 10:04:57;;;;;;;16.15;4.70;;;25.10;99.90;;;;;;5052955;28;20201;-85
2022/05/14 10:07:30;;;;;;;9.15;3.38;;;25.00;99.90;;;;;;5051125;28;20217;-82
2022/05/14 10:10:06;;;;;;;12.10;3.83;;;24.90;99.90;;;;;;5054401;28;20201;-83
2022/05/14 10:12:37;;;;;;;11.20;4.18;;;25.00;99.90;;;;;;5069221;28;20193;-82
2022/05/14 10:15:12;;;;;;;16.25;4.70;;;25.10;99.90;;;;;;5050158;28;20208;-84
2022/05/14 10:17:49;;;;;;;10.80;3.47;;;25.10;99.90;;;;;;5049352;28;20590;-81
2022/05/14 10:20:34;;;;;;;13.18;4.03;;;25.10;99.90;;;;;;5050250;28;20582;-85
2022/05/14 10:29:16;;;;;;;8.70;3.10;;;25.00;99.90;;;;;;5050847;28;20213;-85
2022/05/14 10:31:51;;;;;;;12.68;3.85;;;24.90;99.90;;;;;;5051369;28;20188;-87
2022/05/14 10:34:21;;;;;;;12.18;3.78;;;25.00;99.90;;;;;;5051783;28;20225;-82
2022/05/14 10:36:58;;;;;;;16.00;4.45;;;25.00;99.90;;;;;;5050167;28;20202;-82
2022/05/14 10:39:32;;;;;;;12.70;4.10;;;24.80;99.90;;;;;;5048928;28;20224;-83
2022/05/14 10:42:06;;;;;;;11.73;4.07;;;24.70;99.90;;;;;;5051178;28;20217;-83
2022/05/14 10:44:42;;;;;;;10.32;3.13;;;24.50;99.90;;;;;;5050802;28;20201;-84
2022/05/14 10:47:12;;;;;;;9.00;3.78;;;24.40;99.90;;;;;;5054182;28;20273;-85
2022/05/14 10:49:45;;;;;;;16.77;4.60;;;24.30;99.90;;;;;;5071805;28;20212;-85
2022/05/14 10:52:15;;;;;;;12.27;3.70;;;24.10;99.90;;;;;;5071766;28;20197;-84
2022/05/14 10:54:44;;;;;;;11.77;4.07;;;24.30;99.90;;;;;;5070050;28;20624;-83
2022/05/14 10:57:28;;;;;;;14.20;4.00;;;24.60;99.90;;;;;;5070628;28;20228;-83
2022/05/14 11:00:01;;;;;;;11.93;3.88;;;24.70;99.90;;;;;;5070737;28;20212;-84
2022/05/14 11:02:30;;;;;;;15.02;4.60;;;24.60;99.90;;;;;;5063495;28;20218;-83
2022/05/14 11:04:57;;;;;;;8.88;3.67;;;24.70;99.90;;;;;;5049701;28;20194;-84
2022/05/14 11:07:32;;;;;;;12.13;3.72;;;24.80;99.90;;;;;;5049960;28;20225;-83
2022/05/14 11:10:11;;;;;;;14.98;4.38;;;24.70;99.90;;;;;;5050557;28;20772;-83
2022/05/14 11:12:39;;;;;;;15.10;4.00;;;24.80;99.90;;;;;;5050514;28;20206;-81
2022/05/14 11:15:20;;;;;;;11.13;3.20;;;24.70;99.90;;;;;;5051296;28;20198;-83
2022/05/14 11:17:46;;;;;;;12.50;4.20;;;24.70;99.90;;;;;;5051605;28;20190;-83
2022/05/14 11:20:16;;;;;;;14.27;4.10;;;24.80;99.90;;;;;;5052510;28;20552;-87
2022/05/14 11:22:49;;;;;;;12.88;4.13;;;24.90;99.90;;;;;;5053092;28;20427;-84
2022/05/14 11:25:25;;;;;;;12.07;3.95;;;25.10;99.90;;;;;;5053899;28;20202;-84
2022/05/14 11:27:58;;;;;;;17.45;5.00;;;25.10;99.90;;;;;;5050611;28;20494;-82
2022/05/14 11:30:33;;;;;;;13.00;4.53;;;25.10;99.90;;;;;;5057053;28;20286;-83
2022/05/14 11:33:00;;;;;;;13.20;4.43;;;25.00;99.90;;;;;;5070567;28;20676;-81
2022/05/14 11:35:38;;;;;;;9.68;3.60;;;25.00;99.90;;;;;;5075865;28;20241;-81
2022/05/14 11:38:15;;;;;;;14.63;4.78;;;25.00;99.90;;;;;;5082634;28;20209;-84
2022/05/14 11:40:42;;;;;;;14.95;4.32;;;25.00;99.90;;;;;;5084976;28;20189;-82
2022/05/14 11:43:25;;;;;;;12.55;4.10;;;24.90;99.90;;;;;;5065660;28;20229;-82
2022/05/14 11:46:01;;;;;;;11.95;3.58;;;25.00;99.90;;;;;;5061359;28;20193;-80
2022/05/14 11:48:33;;;;;;;10.73;4.15;;;25.10;99.90;;;;;;5054896;28;20225;-84
2022/05/14 11:51:10;;;;;;;16.40;4.32;;;25.10;99.90;;;;;;5061540;28;20209;-81
2022/05/14 11:53:43;;;;;;;14.07;4.32;;;25.30;99.90;;;;;;5068243;28;20472;-80
2022/05/14 11:56:15;;;;;;;14.60;4.68;;;25.10;99.90;;;;;;5066280;28;20254;-83
2022/05/14 11:58:47;;;;;;;12.73;3.78;;;25.30;99.90;;;;;;5059737;28;20278;-82
2022/05/14 12:01:18;;;;;;;12.35;4.10;;;25.30;99.90;;;;;;5045604;28;20202;-82
2022/05/14 12:03:46;;;;;;;16.45;5.00;;;25.30;99.90;;;;;;5044716;28;20650;-80
2022/05/14 12:06:43;;;;;;;13.48;4.07;;;25.40;99.90;;;;;;5045628;28;20201;-82
2022/05/14 12:09:23;;;;;;;15.82;4.45;;;25.50;99.90;;;;;;5044014;28;20246;-82
2022/05/14 12:12:03;;;;;;;13.15;3.70;;;25.50;99.90;;;;;;5044097;28;20194;-80
2022/05/14 12:14:32;;;;;;;11.98;4.30;;;25.30;99.90;;;;;;5046504;28;20198;-85
2022/05/14 12:17:01;;;;;;;11.15;4.07;;;25.00;99.90;;;;;;5047371;28;20194;-84
2022/05/14 12:19:30;;;;;;;15.10;5.00;;;24.80;99.90;;;;;;5068337;28;20560;-82
2022/05/14 12:22:00;;;;;;;15.02;4.25;;;24.40;99.90;;;;;;5067189;28;20231;-81
2022/05/14 12:24:31;;;;;;;11.90;3.83;;;24.10;99.90;;;;;;5066318;28;20597;-81
2022/05/14 12:26:58;;;;;;;14.18;4.18;;;23.90;99.90;;;;;;5065714;28;20872;-81
2022/05/14 12:29:27;;;;;;;10.60;3.70;;;23.70;99.90;;;;;;5066057;28;20511;-81
2022/05/14 12:34:47;;;;;;;14.18;4.10;;;23.70;99.90;;;;;;5066160;28;20232;-81
2022/05/14 12:37:21;;;;;;;18.05;4.85;;;24.00;99.90;;;;;;5046447;28;20221;-82
2022/05/14 12:39:52;;;;;;;14.95;3.90;;;24.00;99.90;;;;;;5046286;28;20190;-79
2022/05/14 12:42:24;;;;;;;12.82;4.15;;;23.80;99.90;;;;;;5063952;28;20240;-83
2022/05/14 12:44:51;;;;;;;20.52;4.97;;;24.10;99.90;;;;;;5047995;28;20194;-82
2022/05/14 12:47:23;;;;;;;11.93;3.92;;;24.50;99.90;;;;;;5052337;28;20757;-85
2022/05/14 12:49:50;;;;;;;11.07;3.42;;;24.80;99.90;;;;;;5051999;28;20213;-82
2022/05/14 12:52:19;;;;;;;19.67;4.82;;;24.90;99.90;;;;;;5050432;28;20202;-82
2022/05/14 12:54:54;;;;;;;13.98;4.50;;;24.70;99.90;;;;;;5049972;28;20210;-82
2022/05/14 12:57:22;;;;;;;11.15;3.85;;;24.80;99.90;;;;;;5066051;28;20201;-86
2022/05/14 12:59:49;;;;;;;11.88;3.80;;;24.90;99.90;;;;;;5068991;28;20578;-81
2022/05/14 13:02:22;;;;;;;11.82;4.00;;;25.10;99.90;;;;;;5066134;28;20901;-81
2022/05/14 13:04:53;;;;;;;14.18;4.55;;;25.20;99.90;;;;;;5063895;28;20821;-78
2022/05/14 13:07:20;;;;;;;11.50;3.58;;;25.30;99.90;;;;;;5066184;28;20229;-80
2022/05/14 13:09:48;;;;;;;11.40;4.22;;;25.50;99.90;;;;;;5064590;28;20275;-82
2022/05/14 13:12:23;;;;;;;16.25;4.82;;;25.50;99.90;;;;;;5067387;28;20213;-79
2022/05/14 13:14:54;;;;;;;11.30;3.60;;;25.50;99.90;;;;;;5067813;28;20212;-80